createdAt,value
2017-10-03T00:01:35.230Z,68.41
2017-10-03T00:06:37.937Z,68.70
2017-10-03T00:11:40.539Z,68.86
2017-10-03T00:16:43.150Z,68.90
2017-10-03T00:21:45.797Z,69.90
2017-10-03T00:26:48.419Z,71.13
2017-10-03T00:31:51.064Z,73.87
2017-10-03T00:36:54.068Z,75.02
2017-10-03T00:41:56.742Z,76.10
2017-10-03T00:46:59.085Z,76.32
2017-10-03T00:52:01.917Z,75.70
2017-10-03T00:57:03.975Z,75.42
2017-10-03T01:02:06.005Z,75.54
2017-10-03T01:07:08.653Z,76.15
2017-10-03T01:12:11.977Z,76.08
2017-10-03T01:17:13.999Z,75.88
2017-10-03T01:22:16.518Z,76.24
2017-10-03T01:27:19.045Z,76.72
2017-10-03T01:32:20.982Z,76.96
2017-10-03T01:37:22.928Z,76.91
2017-10-03T01:42:24.844Z,76.73
2017-10-03T01:47:28.434Z,76.69
2017-10-03T01:52:31.089Z,76.34
2017-10-03T01:57:34.084Z,76.83
2017-10-03T02:02:36.731Z,76.85
2017-10-03T02:07:40.101Z,76.63
2017-10-03T02:12:43.253Z,76.49
2017-10-03T02:17:46.524Z,76.39
2017-10-03T02:22:49.260Z,76.15
2017-10-03T02:27:51.938Z,76.30
2017-10-03T02:32:54.592Z,76.75
2017-10-03T02:37:57.170Z,77.00
2017-10-03T02:42:59.393Z,77.23
2017-10-03T02:48:02.266Z,77.50
2017-10-03T02:53:04.280Z,77.15
2017-10-03T02:58:07.640Z,77.44
2017-10-03T03:03:10.015Z,77.90
2017-10-03T03:08:12.424Z,77.70
2017-10-03T03:13:14.400Z,77.55
2017-10-03T03:18:16.726Z,77.72
2017-10-03T03:23:19.422Z,77.22
2017-10-03T03:28:22.110Z,77.59
2017-10-03T03:33:24.902Z,77.53
2017-10-03T03:38:27.590Z,77.28
2017-10-03T03:43:29.946Z,77.39
2017-10-03T03:48:32.599Z,77.52
2017-10-03T03:53:35.246Z,77.56
2017-10-03T03:58:37.792Z,77.87
2017-10-03T04:03:40.399Z,77.71
2017-10-03T04:08:42.863Z,78.16
2017-10-03T04:13:48.928Z,77.88
2017-10-03T04:18:55.329Z,78.14
2017-10-03T04:23:58.213Z,78.00
2017-10-03T04:29:00.813Z,78.05
2017-10-03T04:34:03.594Z,78.03
2017-10-03T04:39:06.921Z,77.79
2017-10-03T04:44:09.225Z,77.60
2017-10-03T04:49:16.104Z,77.59
2017-10-03T04:54:20.702Z,77.56
2017-10-03T04:59:27.794Z,77.54
2017-10-03T05:04:30.703Z,77.32
2017-10-03T05:09:32.678Z,77.42
2017-10-03T05:14:35.378Z,77.60
2017-10-03T05:19:38.222Z,77.43
2017-10-03T05:24:41.244Z,77.59
2017-10-03T05:29:43.892Z,77.55
2017-10-03T05:34:46.192Z,77.25
2017-10-03T05:39:48.311Z,77.33
2017-10-03T05:44:50.889Z,77.88
2017-10-03T05:49:52.843Z,77.76
2017-10-03T05:54:54.795Z,77.94
2017-10-03T05:59:56.765Z,77.50
2017-10-03T06:04:59.447Z,77.38
2017-10-03T06:10:01.441Z,77.32
2017-10-03T06:15:03.468Z,77.38
2017-10-03T06:20:05.416Z,77.21
2017-10-03T06:25:07.376Z,77.04
2017-10-03T06:30:10.124Z,76.92
2017-10-03T06:35:14.074Z,76.58
2017-10-03T06:40:17.462Z,76.59
2017-10-03T06:45:20.072Z,76.11
2017-10-03T06:50:22.887Z,76.27
2017-10-03T06:55:26.217Z,76.30
2017-10-03T07:00:28.759Z,76.63
2017-10-03T07:05:31.227Z,76.84
2017-10-03T07:10:33.770Z,77.01
2017-10-03T07:15:36.662Z,76.78
2017-10-03T07:20:39.224Z,76.96
2017-10-03T07:25:41.779Z,76.36
2017-10-03T07:30:44.180Z,75.92
2017-10-03T07:35:46.734Z,75.64
2017-10-03T07:40:49.272Z,75.73
2017-10-03T07:45:51.713Z,74.90
2017-10-03T07:50:54.337Z,74.64
2017-10-03T07:55:56.543Z,73.98
2017-10-03T08:00:59.147Z,73.40
2017-10-03T08:06:02.613Z,73.34
2017-10-03T08:11:05.058Z,73.30
2017-10-03T08:16:07.567Z,73.80
2017-10-03T08:21:10.640Z,72.89
2017-10-03T08:26:13.982Z,72.83
2017-10-03T08:31:16.879Z,72.16
2017-10-03T08:36:19.747Z,70.37
2017-10-03T08:41:21.997Z,68.04
2017-10-03T08:46:24.125Z,68.40
2017-10-03T08:51:26.286Z,66.89
2017-10-03T08:56:28.955Z,66.65
2017-10-03T09:01:31.761Z,66.86
2017-10-03T09:06:34.394Z,66.33
2017-10-03T09:11:37.832Z,66.37
2017-10-03T09:16:40.522Z,66.39
2017-10-03T09:21:43.041Z,64.98
2017-10-03T09:26:45.653Z,65.13
2017-10-03T09:31:47.803Z,63.87
2017-10-03T09:36:50.078Z,62.71
2017-10-03T09:41:53.563Z,62.17
2017-10-03T09:46:56.818Z,61.81
2017-10-03T09:51:59.121Z,60.51
2017-10-03T09:57:01.994Z,60.14
2017-10-03T10:02:04.694Z,59.25
2017-10-03T10:07:07.347Z,61.14
2017-10-03T10:12:09.940Z,59.87
2017-10-03T10:17:12.244Z,58.48
2017-10-03T10:22:15.172Z,59.12
2017-10-03T10:27:18.520Z,56.69
2017-10-03T10:32:20.973Z,56.96
2017-10-03T10:37:23.339Z,57.99
2017-10-03T10:42:25.372Z,55.66
2017-10-03T10:47:28.050Z,57.00
2017-10-03T10:52:30.700Z,56.17
2017-10-03T10:57:33.014Z,56.75
2017-10-03T11:02:38.114Z,55.85
2017-10-03T11:07:40.947Z,57.21
2017-10-03T11:12:44.107Z,57.93
2017-10-03T11:17:49.233Z,58.22
2017-10-03T11:23:10.081Z,58.68
2017-10-03T11:28:12.743Z,55.68
2017-10-03T11:33:15.415Z,54.35
2017-10-03T11:38:17.895Z,52.64
2017-10-03T11:43:21.425Z,51.54
2017-10-03T11:48:23.952Z,50.29
2017-10-03T11:53:26.379Z,50.97
2017-10-03T11:58:29.081Z,51.52
2017-10-03T12:03:31.898Z,51.55
2017-10-03T12:08:36.235Z,49.81
2017-10-03T12:13:38.145Z,50.66
2017-10-03T12:18:41.490Z,51.03
2017-10-03T12:23:44.176Z,50.39
2017-10-03T12:28:46.846Z,49.37
2017-10-03T12:33:51.728Z,48.67
2017-10-03T12:38:54.346Z,48.87
2017-10-03T12:43:56.539Z,48.95
2017-10-03T12:48:59.368Z,49.60
2017-10-03T12:54:02.546Z,51.20
2017-10-03T12:59:05.636Z,51.59
2017-10-03T13:04:08.117Z,52.72
2017-10-03T13:09:12.629Z,48.68
2017-10-03T13:14:15.689Z,49.83
2017-10-03T13:19:18.102Z,49.46
2017-10-03T13:24:21.009Z,51.15
2017-10-03T13:29:23.644Z,52.42
2017-10-03T13:34:26.230Z,52.57
2017-10-03T13:39:28.299Z,51.92
2017-10-03T13:44:31.977Z,51.03
2017-10-03T13:49:34.511Z,53.65
2017-10-03T13:54:37.105Z,52.99
2017-10-03T13:59:39.357Z,52.47
2017-10-03T14:04:41.632Z,50.59
2017-10-03T14:09:43.841Z,50.50
2017-10-03T14:14:45.778Z,50.36
2017-10-03T14:19:48.122Z,50.88
2017-10-03T14:24:50.379Z,50.01
2017-10-03T14:29:53.017Z,52.12
2017-10-03T14:34:55.577Z,52.52
2017-10-03T14:39:57.964Z,54.21
2017-10-03T14:45:00.634Z,56.90
2017-10-03T14:50:02.809Z,59.92
2017-10-03T14:55:05.482Z,62.46
2017-10-03T15:00:07.449Z,62.79
2017-10-03T15:05:10.118Z,63.02
2017-10-03T15:10:12.707Z,62.73
2017-10-03T15:15:14.668Z,62.33
2017-10-03T15:20:18.612Z,61.23
2017-10-03T15:25:22.145Z,60.67
2017-10-03T15:30:24.789Z,60.75
2017-10-03T15:35:27.563Z,59.74
2017-10-03T15:40:29.786Z,60.26
2017-10-03T15:45:35.204Z,60.51
2017-10-03T15:50:38.535Z,59.96
2017-10-03T15:55:40.843Z,59.22
2017-10-03T16:00:43.375Z,57.03
2017-10-03T16:05:46.043Z,55.42
2017-10-03T16:10:48.388Z,55.10
2017-10-03T16:15:51.167Z,55.69
2017-10-03T16:20:54.211Z,55.80
2017-10-03T16:25:56.655Z,55.62
2017-10-03T16:30:59.265Z,56.37
2017-10-03T16:36:02.626Z,57.28
2017-10-03T16:41:06.083Z,57.70
2017-10-03T16:46:08.803Z,58.73
2017-10-03T16:51:11.405Z,59.82
2017-10-03T16:56:14.039Z,60.67
2017-10-03T17:01:16.662Z,61.78
2017-10-03T17:06:19.385Z,62.71
2017-10-03T17:11:21.312Z,63.51
2017-10-03T17:16:24.267Z,64.22
2017-10-03T17:21:26.267Z,64.18
2017-10-03T17:26:29.592Z,64.38
2017-10-03T17:31:31.593Z,64.62
2017-10-03T17:36:34.222Z,65.40
2017-10-03T17:41:37.377Z,65.99
2017-10-03T17:46:40.125Z,66.19
2017-10-03T17:51:43.695Z,66.43
2017-10-03T17:56:46.907Z,67.07
2017-10-03T18:01:50.310Z,67.44
2017-10-03T18:06:54.928Z,67.29
2017-10-03T18:11:56.940Z,67.01
2017-10-03T18:17:00.578Z,66.49
2017-10-03T18:22:03.705Z,66.39
2017-10-03T18:27:06.976Z,66.56
2017-10-03T18:32:09.021Z,67.22
2017-10-03T18:37:10.980Z,67.25
2017-10-03T18:42:14.587Z,67.74
2017-10-03T18:47:16.530Z,67.55
2017-10-03T18:52:19.290Z,67.53
2017-10-03T18:57:22.050Z,67.88
2017-10-03T19:02:24.052Z,67.99
2017-10-03T19:07:26.100Z,68.01
2017-10-03T19:12:28.115Z,67.91
2017-10-03T19:17:30.060Z,67.81
2017-10-03T19:22:32.763Z,67.69
2017-10-03T19:27:34.900Z,67.66
2017-10-03T19:32:36.953Z,67.52
2017-10-03T19:37:39.004Z,67.84
2017-10-03T19:42:41.050Z,67.92
2017-10-03T19:47:43.939Z,68.04
2017-10-03T19:52:45.931Z,68.29
2017-10-03T19:57:49.646Z,68.34
2017-10-03T20:02:53.185Z,68.49
2017-10-03T20:07:55.245Z,68.71
2017-10-03T20:12:57.222Z,68.51
2017-10-03T20:17:59.239Z,68.64
2017-10-03T20:23:01.167Z,68.96
2017-10-03T20:28:04.047Z,68.88
2017-10-03T20:33:06.022Z,68.83
2017-10-03T20:38:08.747Z,68.94
2017-10-03T20:43:10.700Z,69.22
2017-10-03T20:48:12.825Z,69.18
2017-10-03T20:53:15.375Z,69.65
2017-10-03T20:58:17.723Z,69.68
2017-10-03T21:03:19.973Z,69.90
2017-10-03T21:08:22.537Z,70.26
2017-10-03T21:13:24.858Z,69.93
2017-10-03T21:18:27.141Z,69.93
2017-10-03T21:23:30.159Z,69.91
2017-10-03T21:28:32.091Z,70.56
2017-10-03T21:33:34.182Z,70.43
2017-10-03T21:38:36.179Z,70.47
2017-10-03T21:43:38.175Z,70.38
2017-10-03T21:48:40.196Z,70.66
2017-10-03T21:53:42.096Z,70.79
2017-10-03T21:58:44.014Z,70.81
2017-10-03T22:03:45.910Z,71.12
2017-10-03T22:08:47.843Z,70.96
2017-10-03T22:13:49.777Z,70.95
2017-10-03T22:18:52.490Z,70.66
2017-10-03T22:23:54.462Z,70.58
2017-10-03T22:28:56.384Z,70.35
2017-10-03T22:33:58.915Z,70.37
2017-10-03T22:39:01.459Z,70.36
2017-10-03T22:44:03.987Z,70.10
2017-10-03T22:49:11.108Z,70.47
2017-10-03T22:54:13.009Z,70.68
2017-10-03T22:59:14.967Z,70.86
2017-10-03T23:04:16.972Z,70.79
2017-10-03T23:09:18.882Z,71.17
2017-10-03T23:14:21.565Z,70.64
2017-10-03T23:19:23.609Z,70.42
2017-10-03T23:24:25.526Z,70.12
2017-10-03T23:29:28.287Z,69.85
2017-10-03T23:34:31.014Z,69.89
2017-10-03T23:39:32.952Z,70.27
2017-10-03T23:44:34.953Z,69.99
2017-10-03T23:49:37.722Z,69.95
2017-10-03T23:54:40.355Z,70.04
2017-10-03T23:59:42.336Z,69.56
